Time;durP1;ratioP1;P1;durP2;ratioP2;P2;SDS_P1;SDS_P2;PMS_P1;PMS_P2;Temp;Humidity;BMP_temperature;BMP_pressure;BME280_temperature;BME280_humidity;BME280_pressure;Samples;Min_cycle;Max_cycle;Signal;HPM_P1;HPM_P2
2021/09/19 00:00:26;;;;;;;;;;;24.20;58.90;;;;;;5066792;28;20003;-58
2021/09/19 00:02:53;;;;;;;;;;;24.10;58.80;;;;;;5075077;28;19925;-59
2021/09/19 00:05:20;;;;;;;;;;;24.20;58.90;;;;;;5107555;27;20003;-58
2021/09/19 00:07:47;;;;;;;;;;;24.20;58.90;;;;;;5073182;28;20002;-58
2021/09/19 00:10:15;;;;;;;;;;;24.20;58.90;;;;;;5078589;28;19924;-59
2021/09/19 00:12:42;;;;;;;;;;;24.20;58.90;;;;;;5088249;28;19974;-59
2021/09/19 00:15:10;;;;;;;;;;;24.10;58.90;;;;;;5075462;28;19960;-59
2021/09/19 00:17:37;;;;;;;;;;;24.10;58.90;;;;;;5072078;28;19981;-59
2021/09/19 00:20:06;;;;;;;;;;;24.10;58.80;;;;;;5075240;28;19928;-58
2021/09/19 00:22:34;;;;;;;;;;;24.10;58.90;;;;;;5075168;28;20331;-59
2021/09/19 00:25:03;;;;;;;;;;;24.10;58.90;;;;;;5092382;28;19947;-59
2021/09/19 00:27:30;;;;;;;;;;;24.10;58.90;;;;;;5073405;28;20391;-59
2021/09/19 00:29:57;;;;;;;;;;;24.10;58.90;;;;;;5073493;28;19925;-59
2021/09/19 00:32:25;;;;;;;;;;;24.10;58.90;;;;;;5055593;28;19971;-58
2021/09/19 00:34:52;;;;;;;;;;;24.10;58.90;;;;;;5057479;28;19924;-59
2021/09/19 00:37:19;;;;;;;;;;;24.10;58.90;;;;;;5089110;28;19924;-59
2021/09/19 00:39:46;;;;;;;;;;;24.10;58.90;;;;;;5076024;28;19924;-59
2021/09/19 00:42:13;;;;;;;;;;;24.10;58.90;;;;;;5074550;28;19936;-59
2021/09/19 00:44:40;;;;;;;;;;;24.10;58.90;;;;;;5087659;28;19928;-59
2021/09/19 00:47:07;;;;;;;;;;;24.10;58.90;;;;;;5077412;28;19924;-59
2021/09/19 00:49:34;;;;;;;;;;;24.10;58.90;;;;;;5074365;28;19974;-58
2021/09/19 00:52:00;;;;;;;;;;;24.10;58.90;;;;;;5072929;28;19924;-59
2021/09/19 00:54:27;;;;;;;;;;;24.10;58.90;;;;;;5073751;28;19936;-58
2021/09/19 00:56:55;;;;;;;;;;;24.10;58.90;;;;;;5074053;28;19974;-59
2021/09/19 00:59:22;;;;;;;;;;;24.10;58.90;;;;;;5067315;28;19925;-58
2021/09/19 01:01:52;;;;;;;;;;;24.10;58.90;;;;;;5062622;28;20388;-59
2021/09/19 01:04:20;;;;;;;;;;;24.10;58.90;;;;;;5073281;28;19928;-58
2021/09/19 01:06:47;;;;;;;;;;;24.10;59.00;;;;;;5074464;28;19977;-59
2021/09/19 01:09:14;;;;;;;;;;;24.10;59.00;;;;;;5074109;28;20249;-59
2021/09/19 01:11:41;;;;;;;;;;;24.10;59.00;;;;;;5074261;28;19963;-59
2021/09/19 01:14:09;;;;;;;;;;;24.10;59.00;;;;;;5074011;28;20368;-58
2021/09/19 01:16:36;;;;;;;;;;;24.10;59.00;;;;;;5072818;28;20319;-59
2021/09/19 01:19:04;;;;;;;;;;;24.10;59.00;;;;;;5057289;28;19924;-59
2021/09/19 01:21:31;;;;;;;;;;;24.10;59.00;;;;;;5055738;28;19960;-59
2021/09/19 01:24:02;;;;;;;;;;;24.10;59.00;;;;;;5056212;28;20019;-59
2021/09/19 01:26:30;;;;;;;;;;;24.10;59.00;;;;;;5069254;28;19995;-59
2021/09/19 01:28:57;;;;;;;;;;;24.10;59.00;;;;;;5090292;28;20388;-59
2021/09/19 01:31:24;;;;;;;;;;;24.10;59.00;;;;;;5072865;28;19925;-59
2021/09/19 01:33:51;;;;;;;;;;;24.00;58.90;;;;;;5072544;28;19925;-59
2021/09/19 01:36:18;;;;;;;;;;;24.10;59.00;;;;;;5074708;28;20384;-59
2021/09/19 01:38:45;;;;;;;;;;;24.00;58.90;;;;;;5073541;28;19986;-59
2021/09/19 01:41:19;;;;;;;;;;;24.00;58.90;;;;;;5072311;28;20331;-59
2021/09/19 01:43:51;;;;;;;;;;;24.00;58.90;;;;;;5073616;28;19928;-59
2021/09/19 01:46:17;;;;;;;;;;;24.00;58.90;;;;;;5071497;28;19929;-59
2021/09/19 01:48:44;;;;;;;;;;;24.00;58.90;;;;;;5059790;28;19979;-59
2021/09/19 01:51:12;;;;;;;;;;;24.00;58.90;;;;;;5068834;28;19963;-59
2021/09/19 01:53:40;;;;;;;;;;;24.00;58.90;;;;;;5073746;28;19978;-59
2021/09/19 01:56:08;;;;;;;;;;;24.00;58.90;;;;;;5073368;28;19971;-59
2021/09/19 01:58:41;;;;;;;;;;;24.00;58.90;;;;;;5073486;28;20343;-59
2021/09/19 02:01:08;;;;;;;;;;;24.00;58.90;;;;;;5065005;28;19925;-59
2021/09/19 02:03:36;;;;;;;;;;;24.00;58.90;;;;;;5056617;28;19966;-59
2021/09/19 02:06:03;;;;;;;;;;;24.00;58.90;;;;;;5064068;28;19924;-58
2021/09/19 02:08:30;;;;;;;;;;;24.00;58.90;;;;;;5072028;28;19928;-59
2021/09/19 02:10:57;;;;;;;;;;;24.00;58.90;;;;;;5068396;28;19971;-59
2021/09/19 02:13:24;;;;;;;;;;;24.00;58.90;;;;;;5059955;28;19925;-59
2021/09/19 02:15:51;;;;;;;;;;;24.00;58.90;;;;;;5075072;28;19924;-59
2021/09/19 02:18:18;;;;;;;;;;;24.00;58.80;;;;;;5078471;28;19925;-59
2021/09/19 02:20:45;;;;;;;;;;;24.00;58.90;;;;;;5070690;28;19974;-59
2021/09/19 02:23:12;;;;;;;;;;;24.00;58.80;;;;;;5071330;28;20440;-59
2021/09/19 02:25:39;;;;;;;;;;;24.00;58.80;;;;;;5073154;28;19954;-59
2021/09/19 02:28:06;;;;;;;;;;;24.00;58.80;;;;;;5073107;28;20015;-59
2021/09/19 02:30:33;;;;;;;;;;;24.00;58.80;;;;;;5073045;28;19943;-59
2021/09/19 02:33:00;;;;;;;;;;;24.00;58.80;;;;;;5075611;28;20007;-59
2021/09/19 02:35:27;;;;;;;;;;;24.00;58.80;;;;;;5075979;28;19974;-58
2021/09/19 02:37:54;;;;;;;;;;;24.00;58.80;;;;;;5075911;28;19982;-59
2021/09/19 02:40:21;;;;;;;;;;;23.90;58.70;;;;;;5075639;28;20440;-59
2021/09/19 02:42:51;;;;;;;;;;;24.00;58.80;;;;;;5076668;28;19964;-59
2021/09/19 02:45:18;;;;;;;;;;;24.00;58.80;;;;;;5076795;28;19924;-59
2021/09/19 02:47:45;;;;;;;;;;;24.00;58.80;;;;;;5072933;28;19978;-59
2021/09/19 02:50:14;;;;;;;;;;;24.00;58.70;;;;;;5076874;28;20027;-58
2021/09/19 02:52:41;;;;;;;;;;;23.90;59.20;;;;;;5076568;28;19932;-58
2021/09/19 02:55:08;;;;;;;;;;;23.90;58.60;;;;;;5076417;28;19986;-59
2021/09/19 02:57:36;;;;;;;;;;;23.90;58.60;;;;;;5067711;28;19929;-59
2021/09/19 03:00:05;;;;;;;;;;;24.00;58.70;;;;;;5061232;28;19925;-59
2021/09/19 03:02:32;;;;;;;;;;;23.90;58.60;;;;;;5060421;28;19976;-58
2021/09/19 03:04:59;;;;;;;;;;;23.90;58.60;;;;;;5060041;28;19925;-58
2021/09/19 03:07:26;;;;;;;;;;;23.90;58.60;;;;;;5070447;28;19924;-58
2021/09/19 03:09:53;;;;;;;;;;;23.90;58.60;;;;;;5083483;28;19925;-59
2021/09/19 03:12:20;;;;;;;;;;;23.90;58.60;;;;;;5066570;28;20282;-59
2021/09/19 03:14:47;;;;;;;;;;;23.90;58.60;;;;;;5121026;27;19950;-58
2021/09/19 03:17:14;;;;;;;;;;;23.90;58.60;;;;;;5058766;28;19924;-58
2021/09/19 03:19:41;;;;;;;;;;;23.90;58.60;;;;;;5077157;28;20437;-59
2021/09/19 03:22:08;;;;;;;;;;;23.90;58.50;;;;;;5075007;28;19960;-59
2021/09/19 03:24:35;;;;;;;;;;;23.90;58.50;;;;;;5076512;28;19966;-59
2021/09/19 03:27:02;;;;;;;;;;;23.90;58.50;;;;;;5075888;28;19960;-59
2021/09/19 03:29:29;;;;;;;;;;;23.90;58.50;;;;;;5075072;28;19924;-58
2021/09/19 03:31:56;;;;;;;;;;;23.90;58.50;;;;;;5074117;28;19971;-58
2021/09/19 03:34:23;;;;;;;;;;;23.90;58.50;;;;;;5076187;28;19924;-58
2021/09/19 03:36:50;;;;;;;;;;;23.90;58.50;;;;;;5075842;28;19974;-59
2021/09/19 03:39:17;;;;;;;;;;;23.90;58.40;;;;;;5075659;28;19984;-59
2021/09/19 03:41:44;;;;;;;;;;;23.90;58.40;;;;;;5075586;28;19924;-56
2021/09/19 03:44:11;;;;;;;;;;;23.90;58.40;;;;;;5075406;28;19929;-58
2021/09/19 03:46:38;;;;;;;;;;;23.90;58.40;;;;;;5076003;28;19925;-58
2021/09/19 03:49:05;;;;;;;;;;;23.90;58.40;;;;;;5075784;28;19924;-59
2021/09/19 03:51:32;;;;;;;;;;;23.90;58.40;;;;;;5067018;28;19973;-59
2021/09/19 03:53:59;;;;;;;;;;;23.90;58.30;;;;;;5067443;28;19924;-58
2021/09/19 03:56:26;;;;;;;;;;;23.90;58.40;;;;;;5075515;28;20015;-57
2021/09/19 03:58:53;;;;;;;;;;;23.90;58.40;;;;;;5075389;28;19947;-59
2021/09/19 04:01:20;;;;;;;;;;;23.90;58.30;;;;;;5068918;28;19979;-58
2021/09/19 04:03:47;;;;;;;;;;;23.90;58.30;;;;;;5095027;27;19925;-56
2021/09/19 04:06:14;;;;;;;;;;;23.90;58.30;;;;;;5078788;28;19924;-57
2021/09/19 04:08:41;;;;;;;;;;;23.90;58.30;;;;;;5089509;28;20022;-58
2021/09/19 04:11:08;;;;;;;;;;;23.90;58.30;;;;;;5076179;28;19971;-59
2021/09/19 04:13:35;;;;;;;;;;;23.90;58.30;;;;;;5075248;28;20346;-58
2021/09/19 04:16:02;;;;;;;;;;;23.90;58.20;;;;;;5075532;28;19958;-58
2021/09/19 04:18:29;;;;;;;;;;;23.90;58.20;;;;;;5075164;28;20046;-59
2021/09/19 04:20:56;;;;;;;;;;;23.90;58.20;;;;;;5074635;28;19931;-58
2021/09/19 04:23:23;;;;;;;;;;;23.90;58.10;;;;;;5072951;28;20509;-58
2021/09/19 04:25:50;;;;;;;;;;;23.90;58.10;;;;;;5072372;28;19967;-58
2021/09/19 04:28:17;;;;;;;;;;;23.90;58.10;;;;;;5074722;28;20015;-59
2021/09/19 04:30:44;;;;;;;;;;;23.90;58.10;;;;;;5059865;28;19925;-58
2021/09/19 04:33:11;;;;;;;;;;;23.90;58.10;;;;;;5058504;28;19929;-57
2021/09/19 04:35:38;;;;;;;;;;;23.90;58.10;;;;;;5069762;28;19931;-57
2021/09/19 04:38:06;;;;;;;;;;;23.90;58.10;;;;;;5063142;28;20270;-59
2021/09/19 04:40:33;;;;;;;;;;;23.90;58.10;;;;;;5069143;28;19924;-59
2021/09/19 04:43:00;;;;;;;;;;;23.90;58.00;;;;;;5074565;28;19970;-59
2021/09/19 04:45:27;;;;;;;;;;;23.90;58.00;;;;;;5065731;28;20343;-58
2021/09/19 04:47:54;;;;;;;;;;;23.90;58.00;;;;;;5066127;28;19925;-58
2021/09/19 04:50:21;;;;;;;;;;;23.90;58.00;;;;;;5067455;28;20336;-58
2021/09/19 04:52:48;;;;;;;;;;;23.90;58.00;;;;;;5064956;28;19925;-59
2021/09/19 04:55:15;;;;;;;;;;;23.90;58.00;;;;;;5068288;28;19925;-58
2021/09/19 04:57:42;;;;;;;;;;;23.90;57.90;;;;;;5060909;28;19924;-59
2021/09/19 05:00:09;;;;;;;;;;;23.90;57.90;;;;;;5074243;28;19974;-59
2021/09/19 05:02:36;;;;;;;;;;;23.90;57.90;;;;;;5074049;28;19924;-59
2021/09/19 05:05:03;;;;;;;;;;;23.90;57.90;;;;;;5074325;28;19924;-59
2021/09/19 05:07:30;;;;;;;;;;;23.90;57.90;;;;;;5071896;28;19971;-58
2021/09/19 05:09:57;;;;;;;;;;;23.90;58.50;;;;;;5074314;28;20280;-59
2021/09/19 05:12:24;;;;;;;;;;;23.90;57.80;;;;;;5073205;28;19925;-58
2021/09/19 05:14:53;;;;;;;;;;;23.90;57.90;;;;;;5074128;28;19928;-58
2021/09/19 05:17:20;;;;;;;;;;;23.90;57.80;;;;;;5071711;28;19972;-58
2021/09/19 05:19:47;;;;;;;;;;;23.90;57.70;;;;;;5071868;28;19924;-58
2021/09/19 05:22:14;;;;;;;;;;;23.90;57.70;;;;;;5057747;28;19927;-60
2021/09/19 05:24:41;;;;;;;;;;;24.00;57.80;;;;;;5072387;28;19968;-58
2021/09/19 05:27:08;;;;;;;;;;;23.90;57.70;;;;;;5073678;28;19925;-57
2021/09/19 05:29:35;;;;;;;;;;;24.00;57.70;;;;;;5073699;28;19925;-59
2021/09/19 05:32:02;;;;;;;;;;;24.00;57.70;;;;;;5072696;28;19971;-59
2021/09/19 05:34:31;;;;;;;;;;;24.00;57.70;;;;;;5073625;28;19925;-58
2021/09/19 05:36:59;;;;;;;;;;;24.00;57.60;;;;;;5073655;28;20392;-59
2021/09/19 05:39:26;;;;;;;;;;;24.00;57.60;;;;;;5073636;28;19963;-59
2021/09/19 05:41:53;;;;;;;;;;;24.00;57.60;;;;;;5065253;28;19928;-59
2021/09/19 05:44:19;;;;;;;;;;;24.00;57.50;;;;;;5057221;28;19973;-59
2021/09/19 05:46:46;;;;;;;;;;;24.00;57.50;;;;;;5062424;28;20376;-58
2021/09/19 05:49:13;;;;;;;;;;;24.00;57.50;;;;;;5068201;28;19960;-58
2021/09/19 05:51:40;;;;;;;;;;;24.00;57.40;;;;;;5057325;28;20294;-59
2021/09/19 05:54:07;;;;;;;;;;;24.10;57.50;;;;;;5060897;28;19971;-59
2021/09/19 05:56:34;;;;;;;;;;;24.10;58.00;;;;;;5071961;28;19935;-57
2021/09/19 05:59:01;;;;;;;;;;;24.10;57.40;;;;;;5073493;28;20376;-58
2021/09/19 06:01:28;;;;;;;;;;;24.10;57.40;;;;;;5073512;28;20339;-58
2021/09/19 06:03:55;;;;;;;;;;;24.10;57.40;;;;;;5074845;28;19924;-59
2021/09/19 06:06:23;;;;;;;;;;;24.10;57.40;;;;;;5072941;28;20346;-58
2021/09/19 06:08:49;;;;;;;;;;;24.10;57.40;;;;;;5077430;28;19978;-59
2021/09/19 06:11:16;;;;;;;;;;;24.10;57.30;;;;;;5077159;28;20062;-58
2021/09/19 06:13:43;;;;;;;;;;;24.10;57.30;;;;;;5059531;28;19987;-58
2021/09/19 06:16:11;;;;;;;;;;;24.10;57.20;;;;;;5076413;28;19974;-58
2021/09/19 06:18:38;;;;;;;;;;;24.10;57.20;;;;;;5093167;28;20287;-59
2021/09/19 06:21:05;;;;;;;;;;;24.10;57.20;;;;;;5079107;28;19924;-58
2021/09/19 06:23:32;;;;;;;;;;;24.10;57.20;;;;;;5063784;28;19925;-59
2021/09/19 06:25:59;;;;;;;;;;;24.20;57.20;;;;;;5073710;28;19974;-59
2021/09/19 06:28:26;;;;;;;;;;;24.20;57.10;;;;;;5077026;28;19974;-58
2021/09/19 06:30:53;;;;;;;;;;;24.20;57.00;;;;;;5065135;28;19972;-59
2021/09/19 06:33:21;;;;;;;;;;;24.20;57.00;;;;;;5101146;28;20400;-59
2021/09/19 06:35:48;;;;;;;;;;;24.20;57.00;;;;;;5077293;28;20367;-58
2021/09/19 06:38:15;;;;;;;;;;;24.20;57.00;;;;;;5083899;28;20029;-59
2021/09/19 06:40:42;;;;;;;;;;;24.20;56.90;;;;;;5086761;28;19967;-59
2021/09/19 06:43:09;;;;;;;;;;;24.30;57.00;;;;;;5075574;28;20491;-59
2021/09/19 06:45:36;;;;;;;;;;;24.30;57.00;;;;;;5077234;28;20042;-59
2021/09/19 06:48:03;;;;;;;;;;;24.20;56.90;;;;;;5077098;28;19950;-58
2021/09/19 06:50:30;;;;;;;;;;;24.30;56.90;;;;;;5076960;28;19970;-59
2021/09/19 06:52:57;;;;;;;;;;;24.30;56.90;;;;;;5076976;28;19924;-59
2021/09/19 06:55:24;;;;;;;;;;;24.30;56.90;;;;;;5076388;28;20431;-59
2021/09/19 06:57:55;;;;;;;;;;;24.30;56.90;;;;;;5075096;28;19963;-58
2021/09/19 07:00:22;;;;;;;;;;;24.30;56.90;;;;;;5076488;28;19924;-59
2021/09/19 07:02:50;;;;;;;;;;;24.30;56.80;;;;;;5057753;28;19970;-59
2021/09/19 07:05:17;;;;;;;;;;;24.30;56.80;;;;;;5077439;28;19928;-59
2021/09/19 07:07:44;;;;;;;;;;;24.30;56.80;;;;;;5074693;28;19924;-59
2021/09/19 07:10:12;;;;;;;;;;;24.30;56.80;;;;;;5075987;28;19968;-59
2021/09/19 07:12:39;;;;;;;;;;;24.30;56.80;;;;;;5075452;28;19925;-59
2021/09/19 07:15:07;;;;;;;;;;;24.40;56.80;;;;;;5059190;28;20426;-58
2021/09/19 07:17:34;;;;;;;;;;;24.30;56.70;;;;;;5066653;28;20327;-59
2021/09/19 07:20:01;;;;;;;;;;;24.40;56.80;;;;;;5073878;28;19972;-59
2021/09/19 07:22:29;;;;;;;;;;;24.40;56.70;;;;;;5076354;28;19925;-59
2021/09/19 07:24:55;;;;;;;;;;;24.40;56.60;;;;;;5074917;28;19924;-59
2021/09/19 07:27:22;;;;;;;;;;;24.40;56.50;;;;;;5075900;28;19925;-59
2021/09/19 07:29:49;;;;;;;;;;;24.40;56.40;;;;;;5075873;28;19925;-59
2021/09/19 07:32:16;;;;;;;;;;;24.40;56.50;;;;;;5075857;28;19952;-59
2021/09/19 07:34:44;;;;;;;;;;;24.50;56.50;;;;;;5075834;28;19996;-58
2021/09/19 07:37:11;;;;;;;;;;;24.40;56.40;;;;;;5074582;28;19947;-59
2021/09/19 07:39:38;;;;;;;;;;;24.50;56.50;;;;;;5075835;28;20011;-59
2021/09/19 07:42:05;;;;;;;;;;;24.40;56.30;;;;;;5076293;28;19924;-59
2021/09/19 07:44:34;;;;;;;;;;;24.40;56.30;;;;;;5074291;28;19933;-59
2021/09/19 07:47:02;;;;;;;;;;;24.50;56.30;;;;;;5071312;28;19928;-58
2021/09/19 07:49:29;;;;;;;;;;;24.50;56.40;;;;;;5060586;28;19936;-59
2021/09/19 07:51:57;;;;;;;;;;;24.50;56.30;;;;;;5072763;28;19971;-59
2021/09/19 07:54:24;;;;;;;;;;;24.50;56.20;;;;;;5092092;27;19928;-59
2021/09/19 07:56:51;;;;;;;;;;;24.50;56.30;;;;;;5074516;28;19955;-59
2021/09/19 07:59:18;;;;;;;;;;;24.50;56.30;;;;;;5056661;28;19970;-59
2021/09/19 08:01:45;;;;;;;;;;;24.50;56.30;;;;;;5056829;28;19956;-59
2021/09/19 08:04:13;;;;;;;;;;;24.50;56.30;;;;;;5075073;28;19973;-59
2021/09/19 08:06:40;;;;;;;;;;;24.60;56.30;;;;;;5074367;28;19928;-59
2021/09/19 08:09:07;;;;;;;;;;;24.60;56.30;;;;;;5072799;28;19936;-59
2021/09/19 08:11:34;;;;;;;;;;;24.60;56.20;;;;;;5075137;28;19967;-59
2021/09/19 08:14:07;;;;;;;;;;;24.60;56.10;;;;;;5075128;28;19930;-59
2021/09/19 08:16:35;;;;;;;;;;;24.60;56.10;;;;;;5075127;28;19924;-59
2021/09/19 08:19:03;;;;;;;;;;;24.60;56.10;;;;;;5074852;28;19924;-59
2021/09/19 08:21:30;;;;;;;;;;;24.70;56.10;;;;;;5073820;28;19986;-58
2021/09/19 08:23:57;;;;;;;;;;;24.70;56.00;;;;;;5074851;28;19925;-59
2021/09/19 08:26:24;;;;;;;;;;;24.70;55.90;;;;;;5107278;27;19925;-59
2021/09/19 08:28:51;;;;;;;;;;;24.80;56.20;;;;;;5074200;28;19925;-59
2021/09/19 08:31:18;;;;;;;;;;;24.80;55.80;;;;;;5074786;28;19978;-59
2021/09/19 08:33:46;;;;;;;;;;;24.90;55.70;;;;;;5081844;28;20326;-59
2021/09/19 08:36:13;;;;;;;;;;;24.90;55.70;;;;;;5083926;28;19924;-59
2021/09/19 08:38:40;;;;;;;;;;;24.90;55.50;;;;;;5068940;28;19929;-59
2021/09/19 08:41:07;;;;;;;;;;;24.90;55.50;;;;;;5063800;28;19995;-59
2021/09/19 08:43:34;;;;;;;;;;;25.00;55.50;;;;;;5074648;28;19960;-59
2021/09/19 08:46:02;;;;;;;;;;;25.00;55.40;;;;;;5073494;28;19924;-59
2021/09/19 08:48:31;;;;;;;;;;;25.00;55.30;;;;;;5074412;28;19924;-59
2021/09/19 08:50:59;;;;;;;;;;;25.00;55.30;;;;;;5074257;28;19925;-59
2021/09/19 08:53:27;;;;;;;;;;;25.10;55.20;;;;;;5074324;28;20396;-59
2021/09/19 08:55:54;;;;;;;;;;;25.10;55.20;;;;;;5072723;28;19924;-59
2021/09/19 08:58:21;;;;;;;;;;;25.20;55.20;;;;;;5074307;28;20384;-59
2021/09/19 09:00:48;;;;;;;;;;;25.20;55.10;;;;;;5055686;28;19972;-59
2021/09/19 09:03:17;;;;;;;;;;;25.20;55.00;;;;;;5073754;28;20007;-59
2021/09/19 09:05:51;;;;;;;;;;;25.20;55.00;;;;;;5072027;28;20445;-58
2021/09/19 09:08:19;;;;;;;;;;;25.10;55.00;;;;;;5070958;28;19925;-59
2021/09/19 09:10:47;;;;;;;;;;;25.20;55.10;;;;;;5073749;28;19924;-59
2021/09/19 09:13:25;;;;;;;;;;;25.20;55.10;;;;;;5072941;28;19971;-59
2021/09/19 09:16:00;;;;;;;;;;;25.20;55.00;;;;;;5070549;28;19928;-59
2021/09/19 09:18:27;;;;;;;;;;;25.20;54.90;;;;;;5072921;28;19931;-59
2021/09/19 09:21:03;;;;;;;;;;;25.20;54.90;;;;;;5072795;28;19924;-59
2021/09/19 09:23:30;;;;;;;;;;;25.20;54.90;;;;;;5073752;28;19924;-59
2021/09/19 09:26:16;;;;;;;;;;;25.20;54.80;;;;;;5074046;28;19932;-59
2021/09/19 09:28:55;;;;;;;;;;;25.20;54.80;;;;;;5071722;28;19928;-59
2021/09/19 09:31:27;;;;;;;;;;;25.30;54.70;;;;;;5072272;28;19973;-59
2021/09/19 09:33:56;;;;;;;;;;;25.30;54.70;;;;;;5072857;28;19928;-59
2021/09/19 09:36:33;;;;;;;;;;;25.30;54.70;;;;;;5055458;28;19928;-59
2021/09/19 09:39:00;;;;;;;;;;;25.30;54.70;;;;;;5055006;28;19932;-59
2021/09/19 09:41:40;;;;;;;;;;;25.20;54.60;;;;;;5072134;28;20300;-59
2021/09/19 09:44:42;;;;;;;;;;;25.30;54.70;;;;;;5072804;28;19967;-59
2021/09/19 09:47:13;;;;;;;;;;;25.30;54.70;;;;;;5013775;28;20472;-59
2021/09/19 09:49:42;;;;;;;;;;;25.30;54.60;;;;;;5029171;28;19925;-59
2021/09/19 09:52:11;;;;;;;;;;;25.30;54.60;;;;;;5030235;28;20408;-59
2021/09/19 09:54:56;;;;;;;;;;;25.30;54.60;;;;;;5028745;28;19929;-59
2021/09/19 09:57:35;;;;;;;;;;;25.30;54.50;;;;;;5012853;28;20399;-59
2021/09/19 10:00:06;;;;;;;;;;;25.30;54.50;;;;;;5029150;28;19925;-59
2021/09/19 10:02:33;;;;;;;;;;;25.30;54.40;;;;;;5012240;28;20007;-59
2021/09/19 10:05:03;;;;;;;;;;;25.30;54.30;;;;;;5030059;28;19925;-59
2021/09/19 10:07:30;;;;;;;;;;;25.30;54.30;;;;;;5029288;28;20016;-59
2021/09/19 10:09:57;;;;;;;;;;;25.40;54.30;;;;;;5030514;28;19992;-59
2021/09/19 10:12:24;;;;;;;;;;;25.40;54.30;;;;;;5030049;28;19956;-59
2021/09/19 10:14:52;;;;;;;;;;;25.40;54.20;;;;;;5029730;28;19960;-58
2021/09/19 10:17:19;;;;;;;;;;;25.40;54.30;;;;;;5034578;28;20473;-59
2021/09/19 10:19:46;;;;;;;;;;;25.30;54.30;;;;;;5046220;28;20371;-59
2021/09/19 10:22:15;;;;;;;;;;;25.30;54.30;;;;;;5071624;28;20001;-59
2021/09/19 10:24:42;;;;;;;;;;;25.30;54.30;;;;;;5060639;28;19932;-59
2021/09/19 10:27:22;;;;;;;;;;;25.30;54.30;;;;;;5056796;28;19925;-59
2021/09/19 10:30:04;;;;;;;;;;;25.30;54.40;;;;;;5082647;28;19928;-59
2021/09/19 10:32:38;;;;;;;;;;;25.30;54.50;;;;;;5075302;28;19928;-59
2021/09/19 10:35:12;;;;;;;;;;;25.30;54.50;;;;;;5071937;28;19978;-59
2021/09/19 10:37:53;;;;;;;;;;;25.30;55.10;;;;;;5073134;28;19924;-59
2021/09/19 10:40:32;;;;;;;;;;;25.30;54.50;;;;;;5070737;28;19974;-59
2021/09/19 10:42:59;;;;;;;;;;;25.30;54.70;;;;;;5089012;28;19924;-59
2021/09/19 10:45:41;;;;;;;;;;;25.20;54.70;;;;;;5089544;28;19946;-58
2021/09/19 10:48:25;;;;;;;;;;;25.20;54.70;;;;;;5074006;28;19964;-59
2021/09/19 10:51:02;;;;;;;;;;;25.20;54.70;;;;;;5072120;28;19928;-59
2021/09/19 10:53:30;;;;;;;;;;;25.20;54.80;;;;;;5069266;28;19925;-59
2021/09/19 10:56:04;;;;;;;;;;;25.10;54.80;;;;;;5076544;28;19967;-59
2021/09/19 10:58:38;;;;;;;;;;;25.10;54.90;;;;;;5076683;28;19925;-59
2021/09/19 11:01:12;;;;;;;;;;;25.00;54.80;;;;;;5075424;28;19931;-58
2021/09/19 11:03:41;;;;;;;;;;;25.10;55.00;;;;;;5075374;28;19928;-59
2021/09/19 11:06:28;;;;;;;;;;;25.00;55.10;;;;;;5076409;28;19931;-59
2021/09/19 11:08:56;;;;;;;;;;;25.00;55.10;;;;;;5075467;28;20265;-59
2021/09/19 11:11:24;;;;;;;;;;;25.00;55.10;;;;;;5076259;28;20387;-59
2021/09/19 11:13:56;;;;;;;;;;;25.00;55.10;;;;;;5107161;28;19924;-59
2021/09/19 11:16:31;;;;;;;;;;;25.00;55.10;;;;;;5075032;28;20335;-59
2021/09/19 11:19:00;;;;;;;;;;;25.00;55.10;;;;;;5074987;28;19931;-59
2021/09/19 11:21:26;;;;;;;;;;;24.90;55.20;;;;;;5076182;28;19932;-58
2021/09/19 11:23:56;;;;;;;;;;;24.90;55.20;;;;;;5074796;28;20003;-59
2021/09/19 11:26:44;;;;;;;;;;;24.90;55.30;;;;;;5076414;28;19990;-59
2021/09/19 11:29:12;;;;;;;;;;;24.90;55.90;;;;;;5076620;28;19924;-59
2021/09/19 11:31:40;;;;;;;;;;;24.90;55.30;;;;;;5075594;28;20384;-59
2021/09/19 11:34:09;;;;;;;;;;;24.80;55.30;;;;;;5075849;28;20384;-59
2021/09/19 11:36:41;;;;;;;;;;;24.80;55.30;;;;;;5073335;28;20038;-59
2021/09/19 11:39:08;;;;;;;;;;;24.80;55.30;;;;;;5075830;28;19963;-59
2021/09/19 11:41:35;;;;;;;;;;;24.80;55.90;;;;;;5087779;28;19985;-59
2021/09/19 11:44:02;;;;;;;;;;;24.90;55.40;;;;;;5080072;28;19928;-58
2021/09/19 11:46:29;;;;;;;;;;;24.90;55.50;;;;;;5075763;28;19947;-59
2021/09/19 11:48:56;;;;;;;;;;;24.90;55.40;;;;;;5075665;28;19964;-59
2021/09/19 11:51:24;;;;;;;;;;;24.90;55.40;;;;;;5075493;28;20015;-59
2021/09/19 11:53:52;;;;;;;;;;;24.80;55.30;;;;;;5075436;28;20018;-59
2021/09/19 11:56:20;;;;;;;;;;;24.80;55.40;;;;;;5076285;28;19971;-58
2021/09/19 11:58:48;;;;;;;;;;;24.80;55.40;;;;;;5075571;28;19929;-59
2021/09/19 12:01:15;;;;;;;;;;;24.80;55.40;;;;;;5074342;28;19924;-58
2021/09/19 12:03:42;;;;;;;;;;;24.80;55.50;;;;;;5075245;28;20494;-59
2021/09/19 12:06:10;;;;;;;;;;;24.80;55.50;;;;;;5072413;28;20389;-59
2021/09/19 12:08:40;;;;;;;;;;;24.80;55.50;;;;;;5062802;28;19990;-58
2021/09/19 12:11:08;;;;;;;;;;;24.80;55.60;;;;;;5078143;28;19954;-59
2021/09/19 12:13:36;;;;;;;;;;;24.70;55.40;;;;;;5059259;28;19924;-58
2021/09/19 12:16:08;;;;;;;;;;;24.70;55.30;;;;;;5075094;28;20020;-59
2021/09/19 12:18:36;;;;;;;;;;;24.80;55.50;;;;;;5069798;28;20003;-59
2021/09/19 12:21:05;;;;;;;;;;;24.70;55.40;;;;;;5056313;28;19955;-59
2021/09/19 12:23:43;;;;;;;;;;;24.70;55.30;;;;;;5073589;28;19929;-59
2021/09/19 12:26:11;;;;;;;;;;;24.70;55.40;;;;;;5074927;28;19924;-59
2021/09/19 12:28:39;;;;;;;;;;;24.70;55.40;;;;;;5074069;28;20008;-59
2021/09/19 12:31:06;;;;;;;;;;;24.70;55.30;;;;;;5055411;28;19925;-59
2021/09/19 12:33:48;;;;;;;;;;;24.70;55.30;;;;;;5074223;28;19999;-58
2021/09/19 12:36:15;;;;;;;;;;;24.70;55.30;;;;;;5056381;28;20388;-58
2021/09/19 12:38:45;;;;;;;;;;;24.80;55.30;;;;;;5073218;28;19964;-59
2021/09/19 12:41:13;;;;;;;;;;;24.80;55.20;;;;;;5072718;28;19931;-59
2021/09/19 12:43:41;;;;;;;;;;;24.80;55.20;;;;;;5074507;28;19924;-59
2021/09/19 12:46:10;;;;;;;;;;;24.80;55.10;;;;;;5074561;28;20019;-59
2021/09/19 12:48:37;;;;;;;;;;;24.80;55.20;;;;;;5074381;28;19924;-59
2021/09/19 12:51:04;;;;;;;;;;;24.80;55.10;;;;;;5074337;28;19971;-59
2021/09/19 12:53:32;;;;;;;;;;;24.80;55.10;;;;;;5073980;28;20095;-59
2021/09/19 12:55:59;;;;;;;;;;;24.80;55.10;;;;;;5072703;28;19925;-58
2021/09/19 12:58:26;;;;;;;;;;;24.80;55.10;;;;;;5074191;28;20006;-59
2021/09/19 13:00:53;;;;;;;;;;;24.70;55.10;;;;;;5074627;28;20019;-58
2021/09/19 13:03:22;;;;;;;;;;;24.80;55.20;;;;;;5074460;28;19970;-58
2021/09/19 13:05:52;;;;;;;;;;;24.70;55.10;;;;;;5068267;28;20225;-58
2021/09/19 13:08:20;;;;;;;;;;;24.70;55.10;;;;;;5074428;28;20019;-59
2021/09/19 13:10:47;;;;;;;;;;;24.70;55.10;;;;;;5067584;28;20420;-58
2021/09/19 13:13:16;;;;;;;;;;;24.70;55.10;;;;;;5062229;28;19975;-59
2021/09/19 13:15:43;;;;;;;;;;;24.70;55.10;;;;;;5073802;28;19924;-58
2021/09/19 13:18:10;;;;;;;;;;;24.70;55.20;;;;;;5069117;28;19929;-59
2021/09/19 13:20:37;;;;;;;;;;;24.80;55.30;;;;;;5073061;28;19925;-59
2021/09/19 13:23:04;;;;;;;;;;;24.70;55.10;;;;;;5074138;28;19977;-59
2021/09/19 13:25:32;;;;;;;;;;;24.80;55.10;;;;;;5073715;28;19924;-58
2021/09/19 13:27:59;;;;;;;;;;;24.80;55.10;;;;;;5073643;28;19928;-59
2021/09/19 13:30:26;;;;;;;;;;;24.70;55.20;;;;;;5055682;28;19998;-59
2021/09/19 13:32:53;;;;;;;;;;;24.70;55.10;;;;;;5056320;28;19933;-56
2021/09/19 13:35:20;;;;;;;;;;;24.70;55.10;;;;;;5073511;28;19932;-59
2021/09/19 13:37:47;;;;;;;;;;;24.80;55.10;;;;;;5072631;28;19960;-59
2021/09/19 13:40:14;;;;;;;;;;;24.80;55.10;;;;;;5071412;28;19925;-59
2021/09/19 13:42:41;;;;;;;;;;;24.70;55.00;;;;;;5073535;28;19924;-59
2021/09/19 13:45:09;;;;;;;;;;;24.70;54.90;;;;;;5073642;28;19931;-57
2021/09/19 13:47:36;;;;;;;;;;;24.70;55.00;;;;;;5072632;28;19960;-59
2021/09/19 13:50:04;;;;;;;;;;;24.70;55.00;;;;;;5073634;28;19974;-59
2021/09/19 13:52:31;;;;;;;;;;;24.70;55.10;;;;;;5072205;28;19924;-58
2021/09/19 13:54:58;;;;;;;;;;;24.70;55.00;;;;;;5073522;28;20517;-59
2021/09/19 13:57:25;;;;;;;;;;;24.70;55.00;;;;;;5072031;28;20406;-59
2021/09/19 13:59:52;;;;;;;;;;;24.70;55.00;;;;;;5073774;28;19924;-59
2021/09/19 14:02:19;;;;;;;;;;;24.70;55.00;;;;;;5071970;28;19970;-59
2021/09/19 14:04:46;;;;;;;;;;;24.70;55.10;;;;;;5073492;28;19975;-58
2021/09/19 14:07:13;;;;;;;;;;;24.70;55.10;;;;;;5067100;28;19929;-58
2021/09/19 14:09:40;;;;;;;;;;;24.70;55.00;;;;;;5060982;28;19947;-58
2021/09/19 14:12:07;;;;;;;;;;;24.70;55.00;;;;;;5109949;28;19928;-58
2021/09/19 14:14:34;;;;;;;;;;;24.70;55.00;;;;;;5085123;28;19970;-59
2021/09/19 14:17:02;;;;;;;;;;;24.70;55.00;;;;;;5069981;28;20036;-59
2021/09/19 14:19:29;;;;;;;;;;;24.70;54.90;;;;;;5057135;28;19932;-58
2021/09/19 14:21:56;;;;;;;;;;;24.70;54.80;;;;;;5056321;28;19928;-58